Menstrie, United Kingdom
Current Conditions -  °F | °C
As of 4:50 AM on Tuesday 21 Oct 2014 (Local Time) from EGPH Reporting Station
Overcast Overcast  
Wind Chill: 55°   Ceiling: 2300
Heat Index: 55°   Visibility: 6mi
Dew Point: 52°   Wind: 18mph
Humidity: 88%   Direction: 220°SW
Pressure: 29.03"   Gusts: NA
Location:  56.15°N, 3.85°W
Report Text: EGPH 210350Z AUTO 22016KT 9999 FEW016 BKN023 OVC028 13/11 Q0983
Loading
Personal Weather Stations






























Interactive Weather Map
Tropical Storm Tracking
New forecast layout! Learn more

10-Day Weather Forecast

Advertisements
Track Severe Weather on mobile